Pagina principală
METAR-TAF:

METAR-TAF

Aeroporturi :

Fremont Municipal Airport

Fremont, Nebraska, Statele Unite ale Americii

Latitudine: 41-27N, longitudine: 096-31W, elevație: 379 m

Observații meteo curente

Raportul a fost făcut în urmă cu 26 de minute, la 13:15 UTC
Vânt 10 kt de la Nord
Temperatură 6°C
Umiditate 87%
Presiune 1021 hPa
Vizibilitate: 16.1 km
Nori fragmentați la o înălțime de 3100 picior
Nori fragmentați la o înălțime de 4600 picior
Total acoperit la o înălțime de 10000 picior
burniță slabă

METAR: KFET 181315Z AUTO 36010KT 10SM -DZ BKN031 BKN046 OVC100 06/04 A3014 RMK AO2 T00550036

Ora: 08:41 (13:41 UTC)


TAF: lipsă

Observații și prognoze meteo pentru peste 4.000 de aeroporturi (rapoarte METAR și TAF).

Stațiile disponibile sunt reprezentate pe hartă prin puncte galbene și roșii.

Țineți indicatorul mouse-ului pe punctul dorit pentru a vedea denumirea stației.

Apoi, faceți clic pentru a vedea observațiile și prognozele meteorologice.

Pentru a schimba harta: Pentru mărire, faceți clic pe butoanele verzi cu cruce neagră; pentru micșorare, pe butonul verde cu o liniuță; pentru hărți învecinate, pe săgețile verzi.


METAR-TAF: